sensor_id;sensor_type;location;lat;lon;timestamp;temperature;humidity
59208;DHT22;44977;53.132;6.408;2022-07-21T00:04:51;21.50;99.90
59208;DHT22;44977;53.132;6.408;2022-07-21T00:09:52;21.50;99.90
59208;DHT22;44977;53.132;6.408;2022-07-21T00:14:54;21.40;99.90
59208;DHT22;44977;53.132;6.408;2022-07-21T00:19:55;21.40;99.90
59208;DHT22;44977;53.132;6.408;2022-07-21T00:24:55;21.40;99.90
59208;DHT22;44977;53.132;6.408;2022-07-21T00:29:56;21.40;99.90
59208;DHT22;44977;53.132;6.408;2022-07-21T00:34:57;21.30;99.90
59208;DHT22;44977;53.132;6.408;2022-07-21T00:39:58;21.20;99.90
59208;DHT22;44977;53.132;6.408;2022-07-21T00:45:00;21.20;99.90
59208;DHT22;44977;53.132;6.408;2022-07-21T00:50:06;21.20;99.90
59208;DHT22;44977;53.132;6.408;2022-07-21T00:55:08;21.10;99.90
59208;DHT22;44977;53.132;6.408;2022-07-21T01:00:17;21.00;99.90
59208;DHT22;44977;53.132;6.408;2022-07-21T01:05:18;21.00;99.90
59208;DHT22;44977;53.132;6.408;2022-07-21T01:10:22;21.00;99.90
59208;DHT22;44977;53.132;6.408;2022-07-21T01:15:23;21.00;99.90
59208;DHT22;44977;53.132;6.408;2022-07-21T01:20:24;20.90;99.90
59208;DHT22;44977;53.132;6.408;2022-07-21T01:25:25;20.90;99.90
59208;DHT22;44977;53.132;6.408;2022-07-21T01:30:26;20.80;99.90
59208;DHT22;44977;53.132;6.408;2022-07-21T01:35:26;20.70;99.90
59208;DHT22;44977;53.132;6.408;2022-07-21T01:40:27;20.70;99.90
59208;DHT22;44977;53.132;6.408;2022-07-21T01:45:46;20.60;99.90
59208;DHT22;44977;53.132;6.408;2022-07-21T01:50:47;20.60;99.90
59208;DHT22;44977;53.132;6.408;2022-07-21T01:55:48;20.60;99.90
59208;DHT22;44977;53.132;6.408;2022-07-21T02:00:48;20.50;99.90
59208;DHT22;44977;53.132;6.408;2022-07-21T02:05:49;20.50;99.90
59208;DHT22;44977;53.132;6.408;2022-07-21T02:10:50;20.40;99.90
59208;DHT22;44977;53.132;6.408;2022-07-21T02:15:50;20.40;99.90
59208;DHT22;44977;53.132;6.408;2022-07-21T02:20:52;20.30;99.90
59208;DHT22;44977;53.132;6.408;2022-07-21T02:25:53;20.30;99.90
59208;DHT22;44977;53.132;6.408;2022-07-21T02:30:55;20.30;99.90
59208;DHT22;44977;53.132;6.408;2022-07-21T02:35:55;20.30;99.90
59208;DHT22;44977;53.132;6.408;2022-07-21T02:40:56;20.30;99.90
59208;DHT22;44977;53.132;6.408;2022-07-21T02:45:57;20.30;99.90
59208;DHT22;44977;53.132;6.408;2022-07-21T02:50:57;20.20;99.90
59208;DHT22;44977;53.132;6.408;2022-07-21T02:55:58;20.20;99.90
59208;DHT22;44977;53.132;6.408;2022-07-21T03:01:06;20.20;99.90
59208;DHT22;44977;53.132;6.408;2022-07-21T03:06:07;20.10;99.90
59208;DHT22;44977;53.132;6.408;2022-07-21T03:11:08;20.20;99.90
59208;DHT22;44977;53.132;6.408;2022-07-21T03:16:08;20.20;99.90
59208;DHT22;44977;53.132;6.408;2022-07-21T03:21:09;20.20;99.90
59208;DHT22;44977;53.132;6.408;2022-07-21T03:26:10;20.10;99.90
59208;DHT22;44977;53.132;6.408;2022-07-21T03:31:10;20.20;99.90
59208;DHT22;44977;53.132;6.408;2022-07-21T03:36:11;20.20;99.90
59208;DHT22;44977;53.132;6.408;2022-07-21T03:41:12;20.20;99.90
59208;DHT22;44977;53.132;6.408;2022-07-21T03:46:12;20.20;99.90
59208;DHT22;44977;53.132;6.408;2022-07-21T03:51:13;20.20;99.90
59208;DHT22;44977;53.132;6.408;2022-07-21T03:56:14;20.10;99.90
59208;DHT22;44977;53.132;6.408;2022-07-21T04:01:14;20.10;99.90
59208;DHT22;44977;53.132;6.408;2022-07-21T04:06:15;20.10;99.90
59208;DHT22;44977;53.132;6.408;2022-07-21T04:11:16;20.10;99.90
59208;DHT22;44977;53.132;6.408;2022-07-21T04:16:16;20.10;99.90
59208;DHT22;44977;53.132;6.408;2022-07-21T04:21:17;20.10;99.90
59208;DHT22;44977;53.132;6.408;2022-07-21T04:26:18;20.10;99.90
59208;DHT22;44977;53.132;6.408;2022-07-21T04:31:18;20.10;99.90
59208;DHT22;44977;53.132;6.408;2022-07-21T04:36:19;20.10;99.90
59208;DHT22;44977;53.132;6.408;2022-07-21T04:41:20;20.10;99.90
59208;DHT22;44977;53.132;6.408;2022-07-21T04:46:20;20.10;99.90
59208;DHT22;44977;53.132;6.408;2022-07-21T04:51:21;20.10;99.90
59208;DHT22;44977;53.132;6.408;2022-07-21T04:56:22;20.10;99.90
59208;DHT22;44977;53.132;6.408;2022-07-21T05:01:22;20.10;99.90
59208;DHT22;44977;53.132;6.408;2022-07-21T05:06:23;20.10;99.90
59208;DHT22;44977;53.132;6.408;2022-07-21T05:11:24;20.10;99.90
59208;DHT22;44977;53.132;6.408;2022-07-21T05:16:25;20.10;99.90
59208;DHT22;44977;53.132;6.408;2022-07-21T05:21:26;20.10;99.90
59208;DHT22;44977;53.132;6.408;2022-07-21T05:26:26;20.10;99.90
59208;DHT22;44977;53.132;6.408;2022-07-21T05:31:27;20.10;99.90
59208;DHT22;44977;53.132;6.408;2022-07-21T05:36:28;20.10;99.90
59208;DHT22;44977;53.132;6.408;2022-07-21T05:41:28;20.10;99.90
59208;DHT22;44977;53.132;6.408;2022-07-21T05:46:29;20.00;99.90
59208;DHT22;44977;53.132;6.408;2022-07-21T05:51:30;19.90;99.90
59208;DHT22;44977;53.132;6.408;2022-07-21T05:56:30;19.90;99.90
59208;DHT22;44977;53.132;6.408;2022-07-21T06:01:31;19.80;99.90
59208;DHT22;44977;53.132;6.408;2022-07-21T06:06:32;19.90;99.90
59208;DHT22;44977;53.132;6.408;2022-07-21T06:11:33;19.80;99.90
59208;DHT22;44977;53.132;6.408;2022-07-21T06:16:33;19.90;99.90
59208;DHT22;44977;53.132;6.408;2022-07-21T06:21:34;19.90;99.90
59208;DHT22;44977;53.132;6.408;2022-07-21T06:26:35;19.90;99.90
59208;DHT22;44977;53.132;6.408;2022-07-21T06:31:36;19.90;99.90
59208;DHT22;44977;53.132;6.408;2022-07-21T06:36:37;19.90;99.90
59208;DHT22;44977;53.132;6.408;2022-07-21T06:41:39;19.90;99.90
59208;DHT22;44977;53.132;6.408;2022-07-21T06:46:39;19.90;99.90
59208;DHT22;44977;53.132;6.408;2022-07-21T06:51:40;20.00;99.90
59208;DHT22;44977;53.132;6.408;2022-07-21T06:56:41;20.00;99.90
59208;DHT22;44977;53.132;6.408;2022-07-21T07:01:41;20.00;99.90
59208;DHT22;44977;53.132;6.408;2022-07-21T07:06:42;20.10;99.90
59208;DHT22;44977;53.132;6.408;2022-07-21T07:11:43;20.20;99.90
59208;DHT22;44977;53.132;6.408;2022-07-21T07:16:43;20.30;99.90
59208;DHT22;44977;53.132;6.408;2022-07-21T07:21:44;20.30;99.90
59208;DHT22;44977;53.132;6.408;2022-07-21T07:26:45;20.40;99.90
59208;DHT22;44977;53.132;6.408;2022-07-21T07:31:45;20.40;99.90
59208;DHT22;44977;53.132;6.408;2022-07-21T07:36:46;20.50;99.90
59208;DHT22;44977;53.132;6.408;2022-07-21T07:41:47;20.40;99.90
59208;DHT22;44977;53.132;6.408;2022-07-21T07:46:48;20.40;99.90
59208;DHT22;44977;53.132;6.408;2022-07-21T07:51:49;20.40;99.90
59208;DHT22;44977;53.132;6.408;2022-07-21T07:56:50;20.40;99.90
59208;DHT22;44977;53.132;6.408;2022-07-21T08:01:51;20.40;99.90
59208;DHT22;44977;53.132;6.408;2022-07-21T08:06:51;20.30;99.90
59208;DHT22;44977;53.132;6.408;2022-07-21T08:11:52;20.40;99.90
59208;DHT22;44977;53.132;6.408;2022-07-21T08:16:53;20.40;99.90
59208;DHT22;44977;53.132;6.408;2022-07-21T08:21:53;20.50;99.90
59208;DHT22;44977;53.132;6.408;2022-07-21T08:26:54;20.50;99.90
59208;DHT22;44977;53.132;6.408;2022-07-21T08:31:55;20.60;99.90
59208;DHT22;44977;53.132;6.408;2022-07-21T08:36:56;20.70;99.90
59208;DHT22;44977;53.132;6.408;2022-07-21T08:41:57;20.70;99.90
59208;DHT22;44977;53.132;6.408;2022-07-21T08:46:58;20.70;99.90
59208;DHT22;44977;53.132;6.408;2022-07-21T08:51:59;20.80;99.90
59208;DHT22;44977;53.132;6.408;2022-07-21T08:56:59;20.80;99.90
59208;DHT22;44977;53.132;6.408;2022-07-21T09:02:00;20.90;99.90
59208;DHT22;44977;53.132;6.408;2022-07-21T09:07:04;20.90;99.90
59208;DHT22;44977;53.132;6.408;2022-07-21T09:12:06;21.00;99.90
59208;DHT22;44977;53.132;6.408;2022-07-21T09:17:07;21.10;99.90
59208;DHT22;44977;53.132;6.408;2022-07-21T09:22:14;21.10;99.90
59208;DHT22;44977;53.132;6.408;2022-07-21T09:27:17;21.30;99.90
59208;DHT22;44977;53.132;6.408;2022-07-21T09:37:27;21.40;99.90
59208;DHT22;44977;53.132;6.408;2022-07-21T09:42:49;21.50;99.90
59208;DHT22;44977;53.132;6.408;2022-07-21T09:47:49;21.40;99.90
59208;DHT22;44977;53.132;6.408;2022-07-21T09:52:53;21.40;99.90
59208;DHT22;44977;53.132;6.408;2022-07-21T09:57:55;21.40;99.90
59208;DHT22;44977;53.132;6.408;2022-07-21T10:02:56;21.40;99.90
59208;DHT22;44977;53.132;6.408;2022-07-21T10:07:58;21.50;99.90
59208;DHT22;44977;53.132;6.408;2022-07-21T10:13:01;21.40;99.90
59208;DHT22;44977;53.132;6.408;2022-07-21T10:18:03;21.40;99.90
59208;DHT22;44977;53.132;6.408;2022-07-21T10:23:22;21.50;99.90
59208;DHT22;44977;53.132;6.408;2022-07-21T10:28:26;21.60;99.90
59208;DHT22;44977;53.132;6.408;2022-07-21T10:38:45;21.50;99.90
59208;DHT22;44977;53.132;6.408;2022-07-21T10:43:45;21.50;99.90
59208;DHT22;44977;53.132;6.408;2022-07-21T10:48:48;21.60;99.90
59208;DHT22;44977;53.132;6.408;2022-07-21T10:54:15;21.70;99.90
59208;DHT22;44977;53.132;6.408;2022-07-21T10:59:16;21.80;99.90
59208;DHT22;44977;53.132;6.408;2022-07-21T11:04:16;22.00;99.90
59208;DHT22;44977;53.132;6.408;2022-07-21T11:09:18;22.30;99.90
59208;DHT22;44977;53.132;6.408;2022-07-21T11:14:20;22.60;99.90
59208;DHT22;44977;53.132;6.408;2022-07-21T11:19:45;22.90;99.90
59208;DHT22;44977;53.132;6.408;2022-07-21T11:25:11;23.20;99.90
59208;DHT22;44977;53.132;6.408;2022-07-21T11:30:18;23.40;99.90
59208;DHT22;44977;53.132;6.408;2022-07-21T11:35:18;23.60;99.90
59208;DHT22;44977;53.132;6.408;2022-07-21T11:40:20;23.60;99.90
59208;DHT22;44977;53.132;6.408;2022-07-21T11:45:24;23.60;99.90
59208;DHT22;44977;53.132;6.408;2022-07-21T11:50:26;23.50;99.90
59208;DHT22;44977;53.132;6.408;2022-07-21T11:55:28;23.50;99.90
59208;DHT22;44977;53.132;6.408;2022-07-21T12:00:30;23.50;99.90
59208;DHT22;44977;53.132;6.408;2022-07-21T12:05:30;23.50;99.90
59208;DHT22;44977;53.132;6.408;2022-07-21T12:10:31;23.60;99.90
59208;DHT22;44977;53.132;6.408;2022-07-21T12:15:34;23.60;99.90
59208;DHT22;44977;53.132;6.408;2022-07-21T12:20:40;23.70;99.90
59208;DHT22;44977;53.132;6.408;2022-07-21T12:25:41;23.70;99.90
59208;DHT22;44977;53.132;6.408;2022-07-21T12:30:50;23.70;99.90
59208;DHT22;44977;53.132;6.408;2022-07-21T12:36:05;23.60;99.90
59208;DHT22;44977;53.132;6.408;2022-07-21T12:41:08;23.60;99.90
59208;DHT22;44977;53.132;6.408;2022-07-21T12:46:14;23.60;99.90
59208;DHT22;44977;53.132;6.408;2022-07-21T12:56:25;23.50;99.90
59208;DHT22;44977;53.132;6.408;2022-07-21T13:01:28;23.40;99.90
59208;DHT22;44977;53.132;6.408;2022-07-21T13:06:31;23.40;99.90
59208;DHT22;44977;53.132;6.408;2022-07-21T13:11:32;23.40;99.90
59208;DHT22;44977;53.132;6.408;2022-07-21T13:16:33;23.30;99.90
59208;DHT22;44977;53.132;6.408;2022-07-21T13:21:33;23.30;99.90
59208;DHT22;44977;53.132;6.408;2022-07-21T13:26:34;23.30;99.90
59208;DHT22;44977;53.132;6.408;2022-07-21T13:31:35;23.30;99.90
59208;DHT22;44977;53.132;6.408;2022-07-21T13:36:38;23.40;99.90
59208;DHT22;44977;53.132;6.408;2022-07-21T13:41:40;23.30;99.90
59208;DHT22;44977;53.132;6.408;2022-07-21T13:46:41;23.30;99.90
59208;DHT22;44977;53.132;6.408;2022-07-21T13:51:41;23.20;99.90
59208;DHT22;44977;53.132;6.408;2022-07-21T13:56:42;23.10;99.90
59208;DHT22;44977;53.132;6.408;2022-07-21T14:01:43;23.00;99.90
59208;DHT22;44977;53.132;6.408;2022-07-21T14:06:44;23.00;99.90
59208;DHT22;44977;53.132;6.408;2022-07-21T14:11:48;22.80;99.90
59208;DHT22;44977;53.132;6.408;2022-07-21T14:16:49;22.70;99.90
59208;DHT22;44977;53.132;6.408;2022-07-21T14:21:50;22.60;99.90
59208;DHT22;44977;53.132;6.408;2022-07-21T14:26:50;22.60;99.90
59208;DHT22;44977;53.132;6.408;2022-07-21T14:31:51;22.60;99.90
59208;DHT22;44977;53.132;6.408;2022-07-21T14:36:52;22.60;99.90
59208;DHT22;44977;53.132;6.408;2022-07-21T14:41:53;22.60;99.90
59208;DHT22;44977;53.132;6.408;2022-07-21T14:46:53;22.50;99.90
59208;DHT22;44977;53.132;6.408;2022-07-21T14:51:54;22.50;99.90
59208;DHT22;44977;53.132;6.408;2022-07-21T14:56:55;22.40;99.90
59208;DHT22;44977;53.132;6.408;2022-07-21T15:01:55;22.40;99.90
59208;DHT22;44977;53.132;6.408;2022-07-21T15:06:57;22.40;99.90
59208;DHT22;44977;53.132;6.408;2022-07-21T15:11:58;22.50;99.90
59208;DHT22;44977;53.132;6.408;2022-07-21T15:16:59;22.50;99.90
59208;DHT22;44977;53.132;6.408;2022-07-21T15:22:00;22.50;99.90
59208;DHT22;44977;53.132;6.408;2022-07-21T15:27:01;22.40;99.90
59208;DHT22;44977;53.132;6.408;2022-07-21T15:32:02;22.40;99.90
59208;DHT22;44977;53.132;6.408;2022-07-21T15:37:03;22.20;99.90
59208;DHT22;44977;53.132;6.408;2022-07-21T15:42:07;22.20;99.90
59208;DHT22;44977;53.132;6.408;2022-07-21T15:47:09;22.20;99.90
59208;DHT22;44977;53.132;6.408;2022-07-21T15:52:09;22.10;99.90
59208;DHT22;44977;53.132;6.408;2022-07-21T15:57:11;22.20;99.90
59208;DHT22;44977;53.132;6.408;2022-07-21T16:02:14;22.20;99.90
59208;DHT22;44977;53.132;6.408;2022-07-21T16:07:15;22.20;99.90
59208;DHT22;44977;53.132;6.408;2022-07-21T16:12:15;22.00;99.90
59208;DHT22;44977;53.132;6.408;2022-07-21T16:17:16;21.90;99.90
59208;DHT22;44977;53.132;6.408;2022-07-21T16:22:18;21.60;99.90
59208;DHT22;44977;53.132;6.408;2022-07-21T16:27:18;21.50;99.90
59208;DHT22;44977;53.132;6.408;2022-07-21T16:32:20;21.30;99.90
59208;DHT22;44977;53.132;6.408;2022-07-21T16:37:21;21.20;99.90
59208;DHT22;44977;53.132;6.408;2022-07-21T16:42:22;21.10;99.90
59208;DHT22;44977;53.132;6.408;2022-07-21T16:47:23;21.10;99.90
59208;DHT22;44977;53.132;6.408;2022-07-21T16:52:23;21.00;99.90
59208;DHT22;44977;53.132;6.408;2022-07-21T16:57:24;20.80;99.90
59208;DHT22;44977;53.132;6.408;2022-07-21T17:02:25;20.60;99.90
59208;DHT22;44977;53.132;6.408;2022-07-21T17:07:25;20.40;99.90
59208;DHT22;44977;53.132;6.408;2022-07-21T17:12:26;20.20;99.90
59208;DHT22;44977;53.132;6.408;2022-07-21T17:17:27;20.00;99.90
59208;DHT22;44977;53.132;6.408;2022-07-21T17:22:28;19.80;99.90
59208;DHT22;44977;53.132;6.408;2022-07-21T17:27:28;19.70;99.90
59208;DHT22;44977;53.132;6.408;2022-07-21T17:32:29;19.50;99.90
59208;DHT22;44977;53.132;6.408;2022-07-21T17:37:30;19.30;99.90
59208;DHT22;44977;53.132;6.408;2022-07-21T17:42:30;19.20;99.90
59208;DHT22;44977;53.132;6.408;2022-07-21T17:47:31;19.20;99.90
59208;DHT22;44977;53.132;6.408;2022-07-21T17:52:32;19.00;99.90
59208;DHT22;44977;53.132;6.408;2022-07-21T17:57:32;19.00;99.90
59208;DHT22;44977;53.132;6.408;2022-07-21T18:02:51;18.80;99.90
59208;DHT22;44977;53.132;6.408;2022-07-21T18:07:52;18.70;99.90
59208;DHT22;44977;53.132;6.408;2022-07-21T18:12:53;18.60;99.90
59208;DHT22;44977;53.132;6.408;2022-07-21T18:17:54;18.50;99.90
59208;DHT22;44977;53.132;6.408;2022-07-21T18:22:55;18.40;99.90
59208;DHT22;44977;53.132;6.408;2022-07-21T18:27:55;18.30;99.90
59208;DHT22;44977;53.132;6.408;2022-07-21T18:32:56;18.30;99.90
59208;DHT22;44977;53.132;6.408;2022-07-21T18:37:56;18.30;99.90
59208;DHT22;44977;53.132;6.408;2022-07-21T18:42:58;18.20;99.90
59208;DHT22;44977;53.132;6.408;2022-07-21T18:47:59;18.10;99.90
59208;DHT22;44977;53.132;6.408;2022-07-21T18:53:00;18.00;99.90
59208;DHT22;44977;53.132;6.408;2022-07-21T18:58:01;18.00;99.90
59208;DHT22;44977;53.132;6.408;2022-07-21T19:03:01;17.90;99.90
59208;DHT22;44977;53.132;6.408;2022-07-21T19:08:02;17.90;99.90
59208;DHT22;44977;53.132;6.408;2022-07-21T19:13:03;17.80;99.90
59208;DHT22;44977;53.132;6.408;2022-07-21T19:18:04;17.70;99.90
59208;DHT22;44977;53.132;6.408;2022-07-21T19:23:04;17.70;99.90
59208;DHT22;44977;53.132;6.408;2022-07-21T19:28:05;17.70;99.90
59208;DHT22;44977;53.132;6.408;2022-07-21T19:33:06;17.60;99.90
59208;DHT22;44977;53.132;6.408;2022-07-21T19:38:06;17.60;99.90
59208;DHT22;44977;53.132;6.408;2022-07-21T19:43:07;17.50;99.90
59208;DHT22;44977;53.132;6.408;2022-07-21T19:48:08;17.50;99.90
59208;DHT22;44977;53.132;6.408;2022-07-21T19:53:09;17.50;99.90
59208;DHT22;44977;53.132;6.408;2022-07-21T19:58:09;17.50;99.90
59208;DHT22;44977;53.132;6.408;2022-07-21T20:03:11;17.50;99.90
59208;DHT22;44977;53.132;6.408;2022-07-21T20:08:12;17.40;99.90
59208;DHT22;44977;53.132;6.408;2022-07-21T20:13:14;17.50;99.90
59208;DHT22;44977;53.132;6.408;2022-07-21T20:18:14;17.40;99.90
59208;DHT22;44977;53.132;6.408;2022-07-21T20:23:15;17.40;99.90
59208;DHT22;44977;53.132;6.408;2022-07-21T20:28:16;17.40;99.90
59208;DHT22;44977;53.132;6.408;2022-07-21T20:33:17;17.30;99.90
59208;DHT22;44977;53.132;6.408;2022-07-21T20:38:18;17.30;99.90
59208;DHT22;44977;53.132;6.408;2022-07-21T20:43:19;17.30;99.90
59208;DHT22;44977;53.132;6.408;2022-07-21T20:48:19;17.20;99.90
59208;DHT22;44977;53.132;6.408;2022-07-21T20:53:20;17.20;99.90
59208;DHT22;44977;53.132;6.408;2022-07-21T20:58:21;17.20;99.90
59208;DHT22;44977;53.132;6.408;2022-07-21T21:03:22;17.20;99.90
59208;DHT22;44977;53.132;6.408;2022-07-21T21:08:23;17.10;99.90
59208;DHT22;44977;53.132;6.408;2022-07-21T21:13:24;17.20;99.90
59208;DHT22;44977;53.132;6.408;2022-07-21T21:18:24;17.10;99.90
59208;DHT22;44977;53.132;6.408;2022-07-21T21:23:28;17.10;99.90
59208;DHT22;44977;53.132;6.408;2022-07-21T21:28:29;17.10;99.90
59208;DHT22;44977;53.132;6.408;2022-07-21T21:33:29;17.10;99.90
59208;DHT22;44977;53.132;6.408;2022-07-21T21:38:30;17.10;99.90
59208;DHT22;44977;53.132;6.408;2022-07-21T21:43:31;17.10;99.90
59208;DHT22;44977;53.132;6.408;2022-07-21T21:48:31;17.00;99.90
59208;DHT22;44977;53.132;6.408;2022-07-21T21:53:32;16.90;99.90
59208;DHT22;44977;53.132;6.408;2022-07-21T21:58:33;16.90;99.90
59208;DHT22;44977;53.132;6.408;2022-07-21T22:03:34;16.80;99.90
59208;DHT22;44977;53.132;6.408;2022-07-21T22:08:35;16.80;99.90
59208;DHT22;44977;53.132;6.408;2022-07-21T22:13:35;16.80;99.90
59208;DHT22;44977;53.132;6.408;2022-07-21T22:18:36;16.80;99.90
59208;DHT22;44977;53.132;6.408;2022-07-21T22:23:37;16.70;99.90
59208;DHT22;44977;53.132;6.408;2022-07-21T22:28:38;16.70;99.90
59208;DHT22;44977;53.132;6.408;2022-07-21T22:33:38;16.70;99.90
59208;DHT22;44977;53.132;6.408;2022-07-21T22:38:39;16.60;99.90
59208;DHT22;44977;53.132;6.408;2022-07-21T22:43:40;16.60;99.90
59208;DHT22;44977;53.132;6.408;2022-07-21T22:48:40;16.60;99.90
59208;DHT22;44977;53.132;6.408;2022-07-21T22:53:41;16.60;99.90
59208;DHT22;44977;53.132;6.408;2022-07-21T22:58:42;16.50;99.90
59208;DHT22;44977;53.132;6.408;2022-07-21T23:03:43;16.50;99.90
59208;DHT22;44977;53.132;6.408;2022-07-21T23:08:43;16.50;99.90
59208;DHT22;44977;53.132;6.408;2022-07-21T23:13:44;16.50;99.90
59208;DHT22;44977;53.132;6.408;2022-07-21T23:18:45;16.50;99.90
59208;DHT22;44977;53.132;6.408;2022-07-21T23:23:45;16.50;99.90
59208;DHT22;44977;53.132;6.408;2022-07-21T23:28:46;16.50;99.90
59208;DHT22;44977;53.132;6.408;2022-07-21T23:33:46;16.50;99.90
59208;DHT22;44977;53.132;6.408;2022-07-21T23:38:47;16.50;99.90
59208;DHT22;44977;53.132;6.408;2022-07-21T23:43:48;16.50;99.90
59208;DHT22;44977;53.132;6.408;2022-07-21T23:48:48;16.50;99.90
59208;DHT22;44977;53.132;6.408;2022-07-21T23:53:49;16.50;99.90
59208;DHT22;44977;53.132;6.408;2022-07-21T23:58:50;16.50;99.90
